Time;durP1;ratioP1;P1;durP2;ratioP2;P2;SDS_P1;SDS_P2;PMS_P1;PMS_P2;Temp;Humidity;BMP_temperature;BMP_pressure;BME280_temperature;BME280_humidity;BME280_pressure;Samples;Min_cycle;Max_cycle;Signal;HPM_P1;HPM_P2
2023/06/13 00:00:44;;;;;;;;;16.33;14.33;;;;;24.81;42.13;100823.75;5039010;28;45441;-73
2023/06/13 00:03:13;;;;;;;;;19.33;18.00;;;;;24.80;43.00;100823.88;5038602;28;45175;-73
2023/06/13 00:05:41;;;;;;;;;18.33;15.00;;;;;24.77;43.19;100824.97;5039131;28;45540;-73
2023/06/13 00:08:06;;;;;;;;;16.00;16.00;;;;;24.79;42.15;100825.72;5038444;28;47320;-73
2023/06/13 00:10:31;;;;;;;;;21.00;17.00;;;;;24.76;43.75;100825.09;5038709;28;45171;-73
2023/06/13 00:12:57;;;;;;;;;17.00;17.00;;;;;24.77;43.28;100833.03;5039417;28;45299;-73
2023/06/13 00:15:23;;;;;;;;;18.00;16.67;;;;;24.72;43.29;100832.59;5039041;28;45392;-72
2023/06/13 00:17:48;;;;;;;;;18.00;17.00;;;;;24.61;42.37;100811.06;5038086;28;45463;-73
2023/06/13 00:20:14;;;;;;;;;21.00;18.00;;;;;24.71;43.06;100828.16;5038316;28;45353;-72
2023/06/13 00:22:39;;;;;;;;;20.33;17.33;;;;;24.70;43.18;100820.22;5040342;28;45217;-72
2023/06/13 00:25:05;;;;;;;;;19.33;16.67;;;;;24.70;44.19;100822.91;5044581;28;45268;-72
2023/06/13 00:27:32;;;;;;;;;21.33;16.00;;;;;24.66;42.99;100814.25;5037180;28;46189;-73
2023/06/13 00:29:57;;;;;;;;;19.67;15.67;;;;;24.41;42.91;100766.88;5038186;28;45557;-73
2023/06/13 00:32:23;;;;;;;;;17.67;16.00;;;;;24.65;42.60;100818.75;5038573;28;45472;-73
2023/06/13 00:34:48;;;;;;;;;20.33;16.00;;;;;24.66;43.13;100830.41;5038671;28;45423;-72
2023/06/13 00:37:14;;;;;;;;;15.00;15.00;;;;;24.56;43.67;100814.09;5038281;28;46019;-73
2023/06/13 00:39:40;;;;;;;;;21.00;20.00;;;;;24.60;42.93;100825.47;5038532;28;45545;-73
2023/06/13 00:42:06;;;;;;;;;17.33;15.33;;;;;24.51;43.22;100810.91;5038593;28;45826;-72
2023/06/13 00:44:32;;;;;;;;;24.00;18.00;;;;;24.46;42.96;100813.97;5038572;28;45388;-73
2023/06/13 00:46:59;;;;;;;;;16.00;12.67;;;;;24.46;43.60;100816.66;5030905;28;46582;-72
2023/06/13 00:49:25;;;;;;;;;18.67;17.00;;;;;24.39;43.26;100817.28;5038036;28;45350;-73
2023/06/13 00:51:51;;;;;;;;;17.00;17.00;;;;;24.24;43.07;100789.75;5037969;28;45472;-72
2023/06/13 00:54:18;;;;;;;;;16.33;15.33;;;;;24.38;43.45;100812.88;5038317;28;45313;-73
2023/06/13 00:56:45;;;;;;;;;20.33;18.00;;;;;24.29;43.46;100815.31;5038009;28;47637;-72
2023/06/13 00:59:12;;;;;;;;;17.67;16.00;;;;;24.08;43.85;100780.22;5037943;28;45367;-73
2023/06/13 01:01:40;;;;;;;;;17.00;17.00;;;;;24.25;43.52;100813.88;5037248;28;45237;-72
2023/06/13 01:04:07;;;;;;;;;22.00;18.67;;;;;24.23;43.45;100813.13;5038363;28;45435;-73
2023/06/13 01:06:38;;;;;;;;;18.00;15.33;;;;;24.27;43.96;100819.97;5037564;28;45722;-74
2023/06/13 01:09:06;;;;;;;;;15.33;15.33;;;;;24.16;43.93;100815.44;5037920;28;45265;-72
2023/06/13 01:11:37;;;;;;;;;20.00;17.67;;;;;24.21;43.71;100827.66;5037948;28;45628;-72
2023/06/13 01:14:14;;;;;;;;;21.67;20.33;;;;;24.12;44.16;100815.78;5037920;28;45499;-72
2023/06/13 01:16:47;;;;;;;;;20.67;17.33;;;;;24.08;44.10;100812.50;5037681;28;47543;-72
2023/06/13 01:19:44;;;;;;;;;18.33;17.67;;;;;24.10;43.80;100825.84;5031323;28;45319;-72
2023/06/13 01:22:16;;;;;;;;;22.33;19.67;;;;;24.05;44.05;100822.63;5030593;28;45668;-72
2023/06/13 01:24:52;;;;;;;;;16.67;16.67;;;;;23.94;44.47;100805.50;5038081;28;45416;-73
2023/06/13 01:27:18;;;;;;;;;19.00;19.00;;;;;23.81;44.36;100804.72;5043744;28;46137;-72
2023/06/13 01:29:45;;;;;;;;;19.33;18.67;;;;;23.84;44.47;100812.56;5040133;28;45336;-72
2023/06/13 01:32:11;;;;;;;;;20.00;20.00;;;;;23.77;44.51;100804.13;5045283;28;45305;-72
2023/06/13 01:34:40;;;;;;;;;22.67;18.67;;;;;23.82;44.59;100818.06;5037408;28;45538;-72
2023/06/13 01:37:07;;;;;;;;;21.00;20.33;;;;;23.72;44.74;100805.47;5039928;28;47287;-72
2023/06/13 01:39:35;;;;;;;;;23.00;21.33;;;;;23.73;44.84;100818.78;5041911;28;45501;-72
2023/06/13 01:42:00;;;;;;;;;32.67;26.00;;;;;23.73;44.98;100825.97;5037257;28;45365;-73
2023/06/13 01:44:28;;;;;;;;;24.33;24.33;;;;;23.63;45.02;100809.72;5037656;28;45460;-72
2023/06/13 01:47:08;;;;;;;;;24.67;22.67;;;;;23.63;45.06;100817.78;5036562;28;45712;-72
2023/06/13 01:49:58;;;;;;;;;30.67;25.67;;;;;23.54;44.86;100811.28;5037145;28;45866;-72
2023/06/13 01:52:39;;;;;;;;;28.33;23.67;;;;;23.48;45.14;100803.66;5031156;28;45268;-72
2023/06/13 01:55:14;;;;;;;;;32.33;25.67;;;;;23.49;45.03;100812.59;5037433;28;45983;-72
2023/06/13 01:57:43;;;;;;;;;26.00;22.67;;;;;23.36;44.92;100801.94;5037257;28;45252;-72
2023/06/13 02:00:13;;;;;;;;;23.00;23.00;;;;;23.41;45.37;100815.84;5036484;28;45313;-72
2023/06/13 02:02:41;;;;;;;;;24.33;20.33;;;;;23.28;45.07;100794.44;5037042;28;45289;-73
2023/06/13 02:05:08;;;;;;;;;19.67;19.67;;;;;23.34;45.44;100806.53;5037580;28;45341;-72
2023/06/13 02:07:36;;;;;;;;;25.33;20.00;;;;;23.30;45.58;100809.47;5036765;28;46508;-72
2023/06/13 02:10:05;;;;;;;;;22.33;20.33;;;;;23.28;45.59;100815.94;5036712;28;45219;-73
2023/06/13 02:12:30;;;;;;;;;19.00;19.00;;;;;23.21;45.65;100812.00;5037164;28;45436;-73
2023/06/13 02:14:56;;;;;;;;;22.00;20.00;;;;;23.12;45.64;100805.50;5036929;28;45463;-73
2023/06/13 02:17:23;;;;;;;;;21.00;20.33;;;;;23.12;45.59;100814.41;5033345;28;45488;-73
2023/06/13 02:19:49;;;;;;;;;28.67;21.33;;;;;23.07;46.20;100816.53;5040712;28;45484;-73
2023/06/13 02:22:14;;;;;;;;;19.67;19.67;;;;;23.04;45.93;100816.75;5036419;28;45415;-73
2023/06/13 02:24:41;;;;;;;;;21.67;19.00;;;;;23.08;46.24;100820.94;5042551;28;45475;-73
2023/06/13 02:27:07;;;;;;;;;22.67;20.67;;;;;23.05;46.23;100821.16;5038345;28;47037;-73
2023/06/13 02:29:35;;;;;;;;;18.67;18.00;;;;;23.05;46.26;100826.53;5036508;28;45499;-73
2023/06/13 02:32:00;;;;;;;;;24.67;22.00;;;;;23.00;46.02;100820.63;5036737;28;45395;-72
2023/06/13 02:34:25;;;;;;;;;21.00;18.33;;;;;22.95;46.56;100812.94;5037019;28;45459;-72
2023/06/13 02:36:51;;;;;;;;;22.67;20.67;;;;;22.94;46.24;100818.41;5036743;28;46668;-72
2023/06/13 02:39:16;;;;;;;;;20.00;19.33;;;;;22.86;46.80;100813.63;5036744;28;45515;-72
2023/06/13 02:41:41;;;;;;;;;19.67;18.67;;;;;22.74;47.01;100809.13;5036813;28;45381;-72
2023/06/13 02:44:07;;;;;;;;;22.00;19.33;;;;;22.81;46.96;100813.09;5036979;28;45306;-72
2023/06/13 02:46:33;;;;;;;;;21.33;20.00;;;;;22.80;47.15;100813.19;5036604;28;45498;-73
2023/06/13 02:48:59;;;;;;;;;27.33;22.33;;;;;22.72;47.47;100808.41;5044638;28;45459;-74
2023/06/13 02:51:24;;;;;;;;;21.67;20.00;;;;;22.67;47.33;100799.81;5038892;28;45375;-74
2023/06/13 02:53:49;;;;;;;;;23.67;20.33;;;;;22.63;47.57;100799.19;5040343;28;45400;-78
2023/06/13 02:56:15;;;;;;;;;19.33;19.33;;;;;22.55;47.93;100799.75;5039747;28;47809;-76
2023/06/13 02:58:40;;;;;;;;;21.33;20.67;;;;;22.56;47.80;100809.50;5039490;28;45314;-78
2023/06/13 03:01:06;;;;;;;;;20.67;19.33;;;;;22.48;48.09;100802.97;5040120;28;45541;-76
2023/06/13 03:03:32;;;;;;;;;26.67;21.67;;;;;22.41;48.20;100800.75;5039984;28;45519;-78
2023/06/13 03:05:59;;;;;;;;;20.67;19.33;;;;;22.40;48.64;100800.84;5039333;28;46019;-76
2023/06/13 03:08:26;;;;;;;;;19.00;18.67;;;;;22.43;48.81;100811.38;5039717;28;45277;-79
2023/06/13 03:10:52;;;;;;;;;21.33;18.33;;;;;22.37;48.30;100795.72;5041233;28;45531;-78
2023/06/13 03:13:18;;;;;;;;;20.00;18.67;;;;;22.30;48.75;100794.41;5048067;28;45428;-76
2023/06/13 03:15:45;;;;;;;;;20.67;18.67;;;;;22.33;48.91;100795.06;5038629;28;46948;-78
2023/06/13 03:18:11;;;;;;;;;20.00;20.00;;;;;22.38;48.71;100806.34;5039316;28;45431;-78
2023/06/13 03:20:37;;;;;;;;;28.00;22.00;;;;;22.32;48.95;100825.56;5039353;28;45345;-83
2023/06/13 03:23:03;;;;;;;;;23.33;18.33;;;;;22.29;49.53;100831.09;5039469;28;45275;-78
2023/06/13 03:25:29;;;;;;;;;22.00;21.33;;;;;22.19;49.17;100824.66;5039479;28;45847;-77
2023/06/13 03:27:55;;;;;;;;;21.67;19.67;;;;;22.23;49.49;100835.09;5038884;28;45344;-76
2023/06/13 03:30:20;;;;;;;;;21.67;18.00;;;;;22.16;48.77;100822.19;5039359;28;45349;-79
2023/06/13 03:32:46;;;;;;;;;21.00;21.00;;;;;22.07;49.17;100819.22;5039495;28;45352;-79
2023/06/13 03:35:11;;;;;;;;;21.00;19.67;;;;;22.11;49.32;100824.38;5039040;28;47126;-77
2023/06/13 03:37:37;;;;;;;;;22.67;19.67;;;;;22.14;49.62;100833.03;5039163;28;45404;-80
2023/06/13 03:40:02;;;;;;;;;21.33;20.67;;;;;22.13;49.43;100830.47;5039238;28;45235;-79
2023/06/13 03:42:27;;;;;;;;;25.00;22.00;;;;;22.06;49.32;100817.50;5039333;28;45434;-79
2023/06/13 03:44:53;;;;;;;;;20.33;20.33;;;;;22.09;49.45;100822.63;5039094;28;46167;-78
2023/06/13 03:47:18;;;;;;;;;22.00;18.67;;;;;22.08;49.41;100820.91;5038860;28;45772;-80
2023/06/13 03:49:43;;;;;;;;;44.67;37.67;;;;;22.09;49.82;100816.44;5039163;28;45468;-78
2023/06/13 03:52:10;;;;;;;;;20.00;19.33;;;;;22.18;49.54;100828.34;5039141;28;45836;-81
2023/06/13 03:54:36;;;;;;;;;22.00;20.00;;;;;22.16;49.61;100825.75;5038694;28;47290;-81
2023/06/13 03:57:02;;;;;;;;;21.67;20.33;;;;;22.12;49.65;100818.88;5038817;28;45391;-79
2023/06/13 03:59:27;;;;;;;;;18.33;17.33;;;;;22.13;49.26;100827.78;5038973;28;45424;-78
2023/06/13 04:01:53;;;;;;;;;36.33;31.00;;;;;22.10;49.70;100823.47;5038093;28;45226;-79
2023/06/13 04:04:18;;;;;;;;;22.00;21.67;;;;;22.07;49.50;100832.63;5037517;28;45498;-78
2023/06/13 04:06:49;;;;;;;;;19.33;17.33;;;;;22.11;49.65;100843.13;5038514;28;45229;-78
2023/06/13 04:09:14;;;;;;;;;23.00;21.00;;;;;22.12;49.49;100828.75;5051372;28;45336;-78
2023/06/13 04:11:40;;;;;;;;;20.00;19.00;;;;;22.12;49.67;100826.06;5058979;27;45424;-77
2023/06/13 04:14:05;;;;;;;;;19.33;19.33;;;;;22.24;49.05;100838.63;5058823;28;45414;-79
2023/06/13 04:16:31;;;;;;;;;21.33;20.67;;;;;22.21;49.53;100837.00;5058587;28;45555;-76
2023/06/13 04:18:57;;;;;;;;;21.67;20.33;;;;;22.18;49.11;100825.66;5058596;27;45401;-80
2023/06/13 04:21:25;;;;;;;;;20.67;17.67;;;;;22.25;49.60;100837.66;5058834;28;45370;-78
2023/06/13 04:23:51;;;;;;;;;21.00;19.67;;;;;22.31;49.19;100839.91;5058414;28;47650;-78
2023/06/13 04:26:18;;;;;;;;;17.67;17.67;;;;;22.26;49.14;100821.47;5058450;28;45428;-78
2023/06/13 04:28:44;;;;;;;;;20.00;18.33;;;;;22.31;49.42;100828.31;5058416;28;45379;-80
2023/06/13 04:31:10;;;;;;;;;20.33;19.33;;;;;22.32;49.65;100811.25;5058522;28;45570;-79
2023/06/13 04:33:39;;;;;;;;;30.33;22.33;;;;;22.36;49.37;100824.34;5058255;28;46589;-78
2023/06/13 04:36:05;;;;;;;;;24.00;21.67;;;;;22.47;49.54;100831.66;5058338;28;45474;-78
2023/06/13 04:38:34;;;;;;;;;22.67;22.00;;;;;22.54;49.44;100830.25;5058235;28;45358;-77
2023/06/13 04:41:00;;;;;;;;;21.67;20.33;;;;;22.53;49.95;100819.63;5058586;28;45308;-77
2023/06/13 04:43:28;;;;;;;;;20.67;20.67;;;;;22.64;49.60;100845.66;5058095;28;45292;-75
2023/06/13 04:45:55;;;;;;;;;21.67;20.67;;;;;22.63;49.17;100838.56;5058123;28;45301;-80
2023/06/13 04:48:25;;;;;;;;;24.00;21.33;;;;;22.48;49.52;100811.91;5054625;28;45317;-75
2023/06/13 04:50:50;;;;;;;;;23.33;20.00;;;;;22.75;49.02;100856.50;5038154;28;45461;-78
2023/06/13 04:53:16;;;;;;;;;22.00;20.67;;;;;22.76;48.92;100852.84;5037805;28;45494;-76
2023/06/13 04:55:42;;;;;;;;;29.67;22.00;;;;;22.73;48.90;100835.13;5037988;28;45188;-75
2023/06/13 04:58:07;;;;;;;;;17.00;16.00;;;;;22.87;48.69;100858.31;5038097;28;45407;-75
2023/06/13 05:00:33;;;;;;;;;26.33;24.33;;;;;22.85;48.52;100860.22;5038291;28;45444;-76
2023/06/13 05:03:02;;;;;;;;;28.00;22.00;;;;;22.94;48.28;100872.13;5044131;28;46709;-76
2023/06/13 05:05:28;;;;;;;;;24.00;21.33;;;;;22.89;47.94;100860.88;5040079;28;45478;-76
2023/06/13 05:07:59;;;;;;;;;21.33;20.00;;;;;22.94;47.72;100864.91;5038093;28;45544;-76
2023/06/13 05:10:28;;;;;;;;;25.67;23.67;;;;;23.02;47.47;100868.88;5037716;28;45306;-75
2023/06/13 05:12:53;;;;;;;;;21.00;19.00;;;;;23.06;47.30;100865.00;5037076;28;46142;-77
2023/06/13 05:15:22;;;;;;;;;21.33;18.67;;;;;23.18;47.39;100874.88;5038446;28;45462;-75
2023/06/13 05:17:54;;;;;;;;;25.67;23.33;;;;;23.29;47.35;100888.38;5041858;28;45601;-75
2023/06/13 05:20:22;;;;;;;;;20.00;16.50;;;;;23.35;47.03;100875.44;5056585;28;45387;-76
2023/06/13 05:22:49;;;;;;;;;34.33;30.67;;;;;23.44;46.50;100869.41;5054379;28;46151;-76
2023/06/13 05:25:15;;;;;;;;;21.67;20.67;;;;;23.52;46.29;100866.13;5041807;28;45555;-75
2023/06/13 05:27:40;;;;;;;;;19.00;19.00;;;;;23.50;46.36;100850.09;5037139;28;45328;-76
2023/06/13 05:30:10;;;;;;;;;33.00;28.33;;;;;23.79;46.66;100885.53;5037875;28;45265;-75
2023/06/13 05:32:35;;;;;;;;;23.00;20.33;;;;;23.77;45.51;100875.84;5036915;28;46209;-75
2023/06/13 05:35:01;;;;;;;;;18.33;18.33;;;;;23.85;45.58;100883.34;5040579;28;45459;-76
2023/06/13 05:37:28;;;;;;;;;25.67;22.33;;;;;23.77;45.78;100865.09;5057603;28;45301;-75
2023/06/13 05:39:54;;;;;;;;;25.00;22.33;;;;;23.90;45.53;100875.81;5057836;28;45475;-75
2023/06/13 05:42:19;;;;;;;;;21.33;18.67;;;;;23.97;45.12;100875.19;5050215;28;46180;-76
2023/06/13 05:44:44;;;;;;;;;23.00;20.67;;;;;24.06;45.60;100884.38;5037202;28;45360;-76
2023/06/13 05:47:09;;;;;;;;;20.33;18.67;;;;;24.11;45.54;100881.38;5037099;28;45435;-75
2023/06/13 05:49:35;;;;;;;;;22.33;20.00;;;;;24.17;44.91;100876.34;5037465;28;45289;-76
2023/06/13 05:52:00;;;;;;;;;24.67;22.67;;;;;24.20;44.91;100872.56;5036557;28;45562;-75
2023/06/13 05:54:25;;;;;;;;;19.67;19.33;;;;;24.22;44.39;100873.28;5036611;28;45228;-76
2023/06/13 05:56:51;;;;;;;;;20.33;19.00;;;;;24.25;44.38;100869.50;5037187;28;45224;-75
2023/06/13 05:59:17;;;;;;;;;17.67;17.33;;;;;24.39;44.01;100888.09;5037267;28;45274;-75
2023/06/13 06:01:42;;;;;;;;;29.00;23.00;;;;;24.27;44.43;100854.13;5037082;28;46816;-75
2023/06/13 06:04:08;;;;;;;;;22.33;20.67;;;;;24.48;43.97;100873.06;5037016;28;45260;-75
2023/06/13 06:06:34;;;;;;;;;24.00;20.67;;;;;24.56;43.36;100891.28;5037219;28;45370;-75
2023/06/13 06:08:59;;;;;;;;;24.33;20.67;;;;;24.33;43.34;100859.00;5036887;28;45610;-75
2023/06/13 06:11:25;;;;;;;;;23.33;20.00;;;;;24.50;43.76;100884.59;5036940;28;45688;-76
2023/06/13 06:13:50;;;;;;;;;22.00;19.67;;;;;24.52;43.63;100888.84;5036909;28;45477;-75
2023/06/13 06:16:16;;;;;;;;;22.67;21.33;;;;;24.52;43.22;100882.63;5036824;28;45261;-75
2023/06/13 06:18:41;;;;;;;;;26.67;25.33;;;;;24.50;43.07;100873.81;5037199;28;45755;-75
2023/06/13 06:21:07;;;;;;;;;23.67;22.00;;;;;24.59;43.83;100893.75;5036691;28;45668;-74
2023/06/13 06:23:32;;;;;;;;;25.33;21.00;;;;;24.57;42.91;100874.16;5036891;28;45278;-75
2023/06/13 06:25:57;;;;;;;;;23.00;22.00;;;;;24.55;43.29;100868.91;5038749;28;45218;-75
2023/06/13 06:28:23;;;;;;;;;20.00;16.00;;;;;24.64;43.31;100884.34;5040166;28;45388;-76
2023/06/13 06:30:48;;;;;;;;;22.67;20.67;;;;;24.60;43.30;100873.94;5040199;28;45483;-75
2023/06/13 06:33:14;;;;;;;;;22.67;20.67;;;;;24.44;43.17;100850.94;5040144;28;45503;-75
2023/06/13 06:35:39;;;;;;;;;25.00;21.33;;;;;24.57;42.64;100868.78;5040420;28;45225;-74
2023/06/13 06:38:04;;;;;;;;;24.33;18.67;;;;;24.67;43.07;100881.44;5040455;28;45184;-74
2023/06/13 06:40:30;;;;;;;;;25.67;21.00;;;;;24.57;42.67;100869.63;5039950;28;46459;-75
2023/06/13 06:42:55;;;;;;;;;29.00;21.67;;;;;24.68;43.11;100875.03;5040052;28;45278;-74
2023/06/13 06:45:21;;;;;;;;;23.00;21.33;;;;;24.70;42.98;100883.00;5040165;28;45227;-75
2023/06/13 06:47:47;;;;;;;;;22.00;20.33;;;;;24.73;43.47;100887.28;5040261;28;45405;-75
2023/06/13 06:50:12;;;;;;;;;20.67;18.67;;;;;24.75;43.34;100874.56;5039785;28;46325;-75
2023/06/13 06:52:38;;;;;;;;;24.00;22.67;;;;;24.74;43.05;100871.00;5039915;28;45364;-75
2023/06/13 06:55:03;;;;;;;;;27.00;22.33;;;;;24.83;43.85;100888.25;5040066;28;45361;-75
2023/06/13 06:57:29;;;;;;;;;22.67;19.33;;;;;24.87;43.70;100880.78;5040048;28;45305;-75
2023/06/13 06:59:54;;;;;;;;;25.00;23.67;;;;;24.68;43.73;100845.41;5039792;28;45440;-75
2023/06/13 07:02:20;;;;;;;;;22.33;22.33;;;;;24.96;43.83;100878.19;5039729;28;45393;-75
2023/06/13 07:04:46;;;;;;;;;19.33;16.33;;;;;24.98;43.91;100873.56;5039925;28;45384;-74
2023/06/13 07:07:11;;;;;;;;;22.00;20.67;;;;;25.08;43.58;100876.34;5039867;28;45488;-75
2023/06/13 07:09:36;;;;;;;;;21.33;19.00;;;;;25.05;43.25;100864.94;5039413;28;47314;-76
2023/06/13 07:12:02;;;;;;;;;23.33;20.00;;;;;25.16;42.60;100870.31;5039558;28;45392;-75
2023/06/13 07:14:27;;;;;;;;;18.00;18.00;;;;;25.29;41.74;100876.41;5039746;28;45299;-75
2023/06/13 07:16:56;;;;;;;;;20.00;20.00;;;;;25.52;41.59;100889.84;5039846;28;45424;-75
2023/06/13 07:19:21;;;;;;;;;19.67;19.33;;;;;25.76;41.76;100884.19;5039389;28;46526;-76
2023/06/13 07:21:47;;;;;;;;;21.33;19.67;;;;;26.02;41.21;100886.53;5039545;28;45398;-74
2023/06/13 07:24:12;;;;;;;;;22.00;20.33;;;;;26.00;40.02;100872.34;5039488;28;45440;-76
2023/06/13 07:26:38;;;;;;;;;19.00;19.00;;;;;26.08;40.67;100883.31;5039442;28;45431;-75
2023/06/13 07:29:03;;;;;;;;;19.00;19.00;;;;;26.36;39.70;100881.78;5039113;28;46209;-75
2023/06/13 07:31:30;;;;;;;;;19.00;17.67;;;;;26.69;39.56;100879.81;5039036;28;45424;-75
2023/06/13 07:33:55;;;;;;;;;28.33;22.67;;;;;26.55;39.29;100859.41;5039381;28;45430;-74
2023/06/13 07:36:21;;;;;;;;;19.67;17.67;;;;;26.75;38.38;100871.16;5039189;28;45305;-74
2023/06/13 07:38:46;;;;;;;;;20.00;18.00;;;;;26.79;39.12;100876.28;5038996;28;46735;-75
2023/06/13 07:41:11;;;;;;;;;19.33;18.33;;;;;26.79;39.83;100879.00;5039393;28;45254;-75
2023/06/13 07:43:37;;;;;;;;;16.67;16.67;;;;;26.74;38.96;100879.41;5039294;28;45405;-75
2023/06/13 07:46:02;;;;;;;;;20.00;18.00;;;;;26.69;38.69;100879.81;5039393;28;45203;-75
2023/06/13 07:48:28;;;;;;;;;18.00;17.00;;;;;26.62;38.83;100877.75;5038823;28;46587;-75
2023/06/13 07:50:53;;;;;;;;;18.00;16.33;;;;;26.55;38.81;100875.59;5039005;28;45523;-76
2023/06/13 07:53:18;;;;;;;;;21.33;18.67;;;;;26.63;38.69;100882.16;5039172;28;45505;-75
2023/06/13 07:55:47;;;;;;;;;20.67;16.67;;;;;26.66;37.72;100888.13;5039266;28;45327;-75
2023/06/13 07:58:13;;;;;;;;;18.33;18.00;;;;;26.80;37.54;100889.66;5038804;28;45443;-75
2023/06/13 08:00:39;;;;;;;;;19.67;17.00;;;;;27.06;37.32;100890.00;5038869;28;45715;-76
2023/06/13 08:03:04;;;;;;;;;17.33;17.00;;;;;27.01;37.23;100873.38;5038782;28;45322;-76
2023/06/13 08:05:30;;;;;;;;;15.33;15.33;;;;;27.06;37.11;100876.50;5039134;28;45298;-76
2023/06/13 08:07:56;;;;;;;;;19.00;18.33;;;;;27.13;36.88;100890.31;5038522;28;45602;-76
2023/06/13 08:10:22;;;;;;;;;20.00;17.00;;;;;27.12;37.08;100893.16;5038640;28;45274;-74
2023/06/13 08:12:48;;;;;;;;;16.00;13.67;;;;;27.03;36.81;100884.03;5038822;28;45284;-76
2023/06/13 08:15:14;;;;;;;;;19.67;18.00;;;;;27.06;36.96;100884.59;5039098;28;45322;-75
2023/06/13 08:17:42;;;;;;;;;17.33;15.33;;;;;27.08;36.49;100874.50;5038624;28;46418;-75
2023/06/13 08:20:11;;;;;;;;;18.67;18.00;;;;;27.22;36.69;100897.56;5038522;28;45351;-76
2023/06/13 08:22:38;;;;;;;;;16.33;15.67;;;;;27.24;36.64;100897.44;5038576;28;45320;-75
2023/06/13 08:25:07;;;;;;;;;18.67;17.00;;;;;27.01;36.39;100851.75;5035248;28;45506;-75
2023/06/13 08:27:32;;;;;;;;;17.67;14.67;;;;;27.36;36.55;100898.19;5037132;28;46232;-75
2023/06/13 08:29:58;;;;;;;;;19.33;18.33;;;;;27.73;35.55;100898.34;5038025;28;45432;-76
2023/06/13 08:32:24;;;;;;;;;19.00;17.00;;;;;28.12;34.79;100879.38;5036761;28;45655;-74
2023/06/13 08:34:49;;;;;;;;;17.67;17.00;;;;;28.28;34.43;100883.31;5053785;28;45571;-75
2023/06/13 08:37:15;;;;;;;;;15.00;15.00;;;;;28.26;34.75;100891.59;5038235;28;45483;-75
2023/06/13 08:39:40;;;;;;;;;16.67;14.67;;;;;28.33;35.17;100878.31;5037875;28;45514;-76
2023/06/13 08:42:07;;;;;;;;;18.33;16.33;;;;;28.50;34.79;100887.53;5038359;28;45405;-76
2023/06/13 08:44:33;;;;;;;;;16.67;15.00;;;;;28.59;34.65;100893.91;5038365;28;45370;-77
2023/06/13 08:46:58;;;;;;;;;17.00;15.00;;;;;28.71;34.52;100881.91;5037621;28;45535;-76
2023/06/13 08:49:24;;;;;;;;;19.33;15.67;;;;;28.71;33.47;100884.63;5037608;28;45385;-76
2023/06/13 08:51:52;;;;;;;;;20.67;15.00;;;;;28.55;33.82;100876.22;5038154;28;45800;-76
2023/06/13 08:54:19;;;;;;;;;15.33;15.33;;;;;28.44;32.94;100877.28;5037759;28;45405;-76
2023/06/13 08:56:46;;;;;;;;;16.33;15.00;;;;;28.36;33.23;100869.88;5037694;28;46320;-76
2023/06/13 08:59:17;;;;;;;;;16.00;14.33;;;;;28.49;34.46;100881.25;5037662;28;45259;-76
2023/06/13 09:01:44;;;;;;;;;16.33;15.33;;;;;28.47;33.73;100875.13;5037976;28;45511;-75
2023/06/13 09:04:11;;;;;;;;;17.00;15.67;;;;;28.41;34.63;100869.47;5038060;28;45395;-77
2023/06/13 09:06:37;;;;;;;;;16.67;16.67;;;;;28.47;34.81;100885.94;5037380;28;45352;-75
2023/06/13 09:09:07;;;;;;;;;16.33;15.67;;;;;28.44;34.66;100878.13;5037419;28;45347;-76
2023/06/13 09:11:36;;;;;;;;;20.33;16.67;;;;;28.46;35.05;100880.69;5037826;28;45513;-76
2023/06/13 09:14:06;;;;;;;;;17.67;15.00;;;;;28.53;33.88;100892.63;5037758;28;45451;-76
2023/06/13 09:16:32;;;;;;;;;19.33;18.33;;;;;28.67;33.13;100880.50;5037515;28;45270;-76
2023/06/13 09:18:59;;;;;;;;;13.67;13.67;;;;;28.76;33.29;100878.75;5037173;28;45409;-76
2023/06/13 09:21:25;;;;;;;;;15.33;13.33;;;;;28.71;34.26;100862.94;5037646;28;45381;-76
2023/06/13 09:23:53;;;;;;;;;16.33;15.67;;;;;28.85;33.92;100875.13;5037679;28;45718;-78
2023/06/13 09:26:18;;;;;;;;;17.00;15.00;;;;;28.95;34.15;100869.66;5037337;28;45741;-77
2023/06/13 09:28:47;;;;;;;;;15.33;15.33;;;;;28.94;33.51;100871.47;5037270;28;45358;-82
2023/06/13 09:31:12;;;;;;;;;14.33;14.33;;;;;28.98;33.16;100872.88;5037725;28;45448;-76
2023/06/13 09:33:38;;;;;;;;;19.00;17.67;;;;;29.19;32.66;100860.91;5037691;28;45254;-76
2023/06/13 09:36:07;;;;;;;;;13.67;13.67;;;;;29.51;32.73;100857.69;5037458;28;45385;-74
2023/06/13 09:38:34;;;;;;;;;16.33;15.33;;;;;29.91;32.15;100860.91;5037330;28;45442;-76
2023/06/13 09:41:02;;;;;;;;;21.67;18.33;;;;;31.13;30.62;100858.97;5037223;28;45444;-76
2023/06/13 09:43:28;;;;;;;;;17.67;17.33;;;;;33.00;29.68;100865.34;5037572;28;45452;-77
2023/06/13 09:45:54;;;;;;;;;17.33;15.67;;;;;35.04;26.08;100874.47;5037119;28;45348;-76
2023/06/13 09:48:20;;;;;;;;;15.33;13.33;;;;;37.07;24.44;100856.53;5032774;28;45492;-76
2023/06/13 09:50:46;;;;;;;;;17.67;16.00;;;;;38.96;22.52;100873.44;5033770;28;45408;-77
2023/06/13 09:53:12;;;;;;;;;15.00;15.00;;;;;40.81;22.42;100875.00;5031021;28;45369;-77
2023/06/13 09:55:37;;;;;;;;;15.00;15.00;;;;;42.33;20.05;100881.09;5022571;28;45458;-77
2023/06/13 09:58:03;;;;;;;;;17.00;16.25;;;;;43.50;18.93;100867.03;5017225;28;45232;-77
2023/06/13 10:00:29;;;;;;;;;14.25;13.25;;;;;44.70;16.76;100878.75;5020814;28;45413;-74
2023/06/13 10:02:58;;;;;;;;;16.75;14.75;;;;;45.76;16.58;100879.19;5029345;28;45416;-75
2023/06/13 10:05:24;;;;;;;;;19.75;18.25;;;;;46.63;15.84;100887.25;5020611;28;45426;-75
2023/06/13 10:07:50;;;;;;;;;17.50;16.25;;;;;47.24;15.39;100872.59;5020471;28;45421;-74
2023/06/13 10:10:15;;;;;;;;;15.50;13.00;;;;;47.88;15.17;100885.13;5020578;28;45330;-73
2023/06/13 10:12:56;;;;;;;;;14.00;13.00;;;;;48.40;15.36;100887.78;5021033;28;45306;-74
2023/06/13 10:15:39;;;;;;;;;13.75;13.75;;;;;48.69;14.71;100873.94;5020531;28;46427;-74
2023/06/13 10:18:13;;;;;;;;;12.50;12.50;;;;;49.08;13.27;100878.75;5020493;28;45247;-73
2023/06/13 10:20:40;;;;;;;;;11.75;11.75;;;;;49.63;13.65;100894.53;5019162;28;45295;-80
2023/06/13 10:23:10;;;;;;;;;15.25;14.75;;;;;50.00;14.18;100893.88;5020729;28;45340;-81
2023/06/13 10:25:37;;;;;;;;;15.00;15.00;;;;;49.79;12.12;100892.41;5020323;28;46905;-87
2023/06/13 10:28:23;;;;;;;;;16.25;16.25;;;;;49.66;12.49;100891.19;5020125;28;45254;-75
2023/06/13 10:31:19;;;;;;;;;14.50;13.50;;;;;49.68;13.09;100893.69;5019987;28;45245;-75
2023/06/13 10:34:28;;;;;;;;;14.25;13.25;;;;;49.97;12.63;100891.69;5020469;28;45175;-75
2023/06/13 10:37:32;;;;;;;;;13.50;13.50;;;;;50.17;12.74;100892.59;5020353;28;45646;-75
2023/06/13 10:40:17;;;;;;;;;14.00;11.25;;;;;50.20;12.81;100888.34;5031854;28;45495;-76
2023/06/13 10:43:04;;;;;;;;;13.50;13.50;;;;;50.47;12.45;100884.94;5040339;28;45303;-75
2023/06/13 10:45:30;;;;;;;;;12.75;12.25;;;;;50.43;12.10;100881.06;5040250;28;45461;-74
2023/06/13 10:47:59;;;;;;;;;10.00;9.00;;;;;50.21;11.21;100864.81;5040092;28;45442;-75
2023/06/13 10:50:24;;;;;;;;;11.50;11.50;;;;;49.98;11.39;100868.16;5040022;28;45282;-75
2023/06/13 10:52:54;;;;;;;;;10.75;10.25;;;;;49.70;12.41;100881.03;5040112;28;45706;-75
2023/06/13 10:55:27;;;;;;;;;10.50;10.00;;;;;49.48;11.67;100873.09;5040165;28;45376;-76
2023/06/13 10:57:56;;;;;;;;;12.25;12.25;;;;;48.73;12.04;100877.84;5039761;28;45565;-75
2023/06/13 11:00:35;;;;;;;;;13.75;13.75;;;;;47.90;12.15;100873.66;5040036;28;45322;-75
2023/06/13 11:03:05;;;;;;;;;16.00;16.00;;;;;46.93;13.14;100866.97;5039836;28;45298;-76
2023/06/13 11:05:33;;;;;;;;;16.25;16.00;;;;;46.10;13.61;100863.03;5040034;28;45425;-75
2023/06/13 11:07:58;;;;;;;;;16.50;16.00;;;;;45.08;14.52;100860.25;5039534;28;46380;-75
2023/06/13 11:10:24;;;;;;;;;14.75;14.75;;;;;44.25;14.74;100855.69;5039685;28;45304;-75